Time;durP1;ratioP1;P1;durP2;ratioP2;P2;SDS_P1;SDS_P2;PMS_P1;PMS_P2;Temp;Humidity;BMP_temperature;BMP_pressure;BME280_temperature;BME280_humidity;BME280_pressure;Samples;Min_cycle;Max_cycle;Signal;HPM_P1;HPM_P2
2023/03/12 00:00:37;;;;;;;;;22.25;18.00;;;;;11.08;72.20;100474.47;2095904;28;46661;-65
2023/03/12 00:01:38;;;;;;;;;19.20;17.00;;;;;11.09;72.22;100476.22;2096146;28;46227;-64
2023/03/12 00:02:39;;;;;;;;;15.80;14.80;;;;;11.11;72.26;100477.03;2104593;28;46316;-65
2023/03/12 00:03:39;;;;;;;;;15.50;15.50;;;;;11.11;72.36;100468.22;2094475;28;45534;-64
2023/03/12 00:04:39;;;;;;;;;14.75;14.75;;;;;11.13;72.10;100472.56;2095998;28;45476;-66
2023/03/12 00:05:41;;;;;;;;;15.75;14.50;;;;;11.13;72.11;100474.34;2102635;28;46263;-65
2023/03/12 00:06:41;;;;;;;;;16.40;16.40;;;;;11.15;72.14;100481.34;2104585;28;46916;-64
2023/03/12 00:07:42;;;;;;;;;18.25;15.50;;;;;11.16;72.20;100477.78;2102809;28;46650;-65
2023/03/12 00:08:42;;;;;;;;;10.75;10.50;;;;;11.18;72.08;100485.72;2100001;27;46373;-64
2023/03/12 00:09:44;;;;;;;;;18.75;16.75;;;;;11.20;72.18;100492.72;2104843;27;46125;-66
2023/03/12 00:10:44;;;;;;;;;17.80;15.40;;;;;11.21;72.12;100485.63;2104805;27;46859;-64
2023/03/12 00:11:45;;;;;;;;;15.25;13.50;;;;;11.23;72.25;100491.78;2104670;27;46307;-65
2023/03/12 00:12:45;;;;;;;;;19.00;17.75;;;;;11.22;72.13;100486.50;2103322;27;46380;-67
2023/03/12 00:13:54;;;;;;;;;10.25;10.25;;;;;11.24;72.14;100496.16;2103846;27;46891;-66
2023/03/12 00:14:54;;;;;;;;;19.20;17.00;;;;;11.23;72.00;100489.13;2104130;27;45637;-67
2023/03/12 00:15:54;;;;;;;;;13.50;12.75;;;;;11.24;72.26;100489.97;2105137;28;46354;-64
2023/03/12 00:16:55;;;;;;;;;18.75;15.75;;;;;11.24;72.13;100493.50;2103714;27;45486;-67
2023/03/12 00:17:55;;;;;;;;;20.75;15.00;;;;;11.26;72.21;100491.69;2101754;27;46222;-64
2023/03/12 00:18:56;;;;;;;;;11.50;11.25;;;;;11.26;72.23;100489.03;2103589;27;45715;-64
2023/03/12 00:19:56;;;;;;;;;14.75;14.75;;;;;11.27;72.13;100485.44;2098885;27;45877;-64
2023/03/12 00:20:57;;;;;;;;;18.00;17.50;;;;;11.28;72.05;100484.53;2104595;28;46147;-65
2023/03/12 00:21:57;;;;;;;;;18.25;15.75;;;;;11.30;72.35;100484.47;2090607;28;46548;-66
2023/03/12 00:22:57;;;;;;;;;18.00;15.50;;;;;11.30;72.38;100472.06;2092158;28;46550;-67
2023/03/12 00:23:58;;;;;;;;;12.50;12.50;;;;;11.31;72.33;100483.59;2104765;28;46392;-64
2023/03/12 00:24:58;;;;;;;;;15.25;14.75;;;;;11.31;72.32;100481.81;2101713;27;45619;-64
2023/03/12 00:26:01;;;;;;;;;14.75;14.50;;;;;11.31;72.46;100479.16;2096533;27;46612;-64
2023/03/12 00:27:01;;;;;;;;;13.00;11.80;;;;;11.32;72.12;100466.75;2104028;27;46336;-64
2023/03/12 00:28:01;;;;;;;;;12.50;11.75;;;;;11.33;71.99;100465.81;2105299;27;46259;-64
2023/03/12 00:29:02;;;;;;;;;13.00;13.00;;;;;11.33;72.09;100463.16;2104455;28;46192;-65
2023/03/12 00:30:04;;;;;;;;;12.00;11.00;;;;;11.32;72.36;100462.31;2104735;27;46643;-64
2023/03/12 00:31:26;;;;;;;;;12.80;12.80;;;;;11.33;72.44;100473.78;2104980;27;46722;-64
2023/03/12 00:32:27;;;;;;;;;16.20;13.60;;;;;11.33;72.62;100460.50;2104170;28;46923;-64
2023/03/12 00:33:28;;;;;;;;;14.50;11.50;;;;;11.35;72.61;100464.84;2106841;27;46390;-65
2023/03/12 00:34:28;;;;;;;;;16.60;13.00;;;;;11.36;72.55;100463.94;2110823;27;46036;-65
2023/03/12 00:35:28;;;;;;;;;16.00;13.50;;;;;11.36;72.61;100455.09;2103004;27;46992;-66
2023/03/12 00:36:31;;;;;;;;;14.50;13.75;;;;;11.36;72.56;100461.28;2105187;27;45212;-66
2023/03/12 00:37:32;;;;;;;;;17.00;16.20;;;;;11.37;72.29;100457.72;2102735;27;46767;-64
2023/03/12 00:38:32;;;;;;;;;13.00;12.00;;;;;11.37;72.20;100449.75;2106623;27;46154;-66
2023/03/12 00:39:33;;;;;;;;;15.00;15.00;;;;;11.37;72.64;100454.19;2108140;27;46238;-65
2023/03/12 00:40:34;;;;;;;;;11.00;11.00;;;;;11.38;72.59;100458.56;2097711;28;46716;-65
2023/03/12 00:41:34;;;;;;;;;15.50;13.75;;;;;11.38;72.68;100454.13;2106409;27;45679;-64
2023/03/12 00:42:34;;;;;;;;;14.50;13.00;;;;;11.39;72.73;100449.69;2105157;27;46572;-64
2023/03/12 00:43:35;;;;;;;;;15.75;15.00;;;;;11.38;72.58;100448.81;2101825;27;46391;-64
2023/03/12 00:44:35;;;;;;;;;13.00;11.00;;;;;11.39;72.78;100444.38;2107024;27;46353;-63
2023/03/12 00:45:36;;;;;;;;;18.50;15.50;;;;;11.38;72.70;100451.47;2103793;28;46703;-65
2023/03/12 00:46:36;;;;;;;;;13.75;13.25;;;;;11.41;72.50;100463.78;2097191;28;45434;-65
2023/03/12 00:47:36;;;;;;;;;14.50;14.50;;;;;11.40;72.66;100462.94;2096907;28;45115;-65
2023/03/12 00:48:37;;;;;;;;;16.25;15.00;;;;;11.40;72.30;100462.94;2095150;28;46957;-65
2023/03/12 00:49:37;;;;;;;;;14.25;13.25;;;;;11.39;72.52;100469.16;2108252;27;46909;-64
2023/03/12 00:50:38;;;;;;;;;15.50;14.50;;;;;11.40;72.34;100475.34;2096989;28;46296;-66
2023/03/12 00:51:38;;;;;;;;;13.50;13.50;;;;;11.37;72.70;100481.63;2098224;28;46812;-65
2023/03/12 00:52:38;;;;;;;;;13.25;12.25;;;;;11.38;72.58;100483.38;2103560;27;46686;-64
2023/03/12 00:53:39;;;;;;;;;14.50;14.00;;;;;11.38;72.78;100469.22;2097124;27;47109;-65
2023/03/12 00:54:39;;;;;;;;;14.50;14.25;;;;;11.39;72.94;100468.28;2103475;27;47845;-65
2023/03/12 00:55:39;;;;;;;;;13.75;12.75;;;;;11.40;72.80;100475.34;2094500;28;45242;-66
2023/03/12 00:56:40;;;;;;;;;12.75;10.25;;;;;11.41;72.36;100477.94;2095387;28;45084;-66
2023/03/12 00:57:40;;;;;;;;;13.25;12.75;;;;;11.43;72.46;100488.53;2104542;27;46492;-65
2023/03/12 00:58:41;;;;;;;;;13.75;12.25;;;;;11.42;72.62;100474.38;2102647;27;46727;-65
2023/03/12 00:59:42;;;;;;;;;10.25;9.25;;;;;11.43;72.37;100491.19;2103748;27;46241;-65
2023/03/12 01:00:42;;;;;;;;;14.25;12.50;;;;;11.42;72.67;100490.31;2101330;27;45781;-65
2023/03/12 01:01:42;;;;;;;;;12.25;11.50;;;;;11.43;72.75;100492.09;2098759;27;46548;-65
2023/03/12 01:02:43;;;;;;;;;15.75;12.75;;;;;11.44;72.68;100490.31;2105634;27;46058;-65
2023/03/12 01:03:43;;;;;;;;;11.50;9.50;;;;;11.45;72.60;100497.34;2108544;27;46263;-66
2023/03/12 01:04:43;;;;;;;;;12.25;12.25;;;;;11.46;72.75;100493.78;2106132;27;46014;-64
2023/03/12 01:05:44;;;;;;;;;11.50;11.50;;;;;11.47;72.92;100496.38;2109360;27;45921;-63
2023/03/12 01:06:44;;;;;;;;;12.00;12.00;;;;;11.50;72.53;100503.41;2101113;27;46647;-66
2023/03/12 01:07:45;;;;;;;;;12.25;12.25;;;;;11.52;72.13;100495.38;2104172;27;45742;-66
2023/03/12 01:08:45;;;;;;;;;10.33;10.00;;;;;11.52;72.39;100495.38;2110152;27;46827;-65
2023/03/12 01:09:45;;;;;;;;;11.00;10.50;;;;;11.52;72.84;100490.94;2100331;27;45167;-64
2023/03/12 01:10:46;;;;;;;;;12.00;10.25;;;;;11.52;72.73;100495.38;2111811;27;46530;-64
2023/03/12 01:11:46;;;;;;;;;8.67;8.67;;;;;11.54;72.65;100496.19;2103823;27;46584;-65
2023/03/12 01:12:47;;;;;;;;;9.00;9.00;;;;;11.55;72.53;100495.28;2102370;28;45915;-65
2023/03/12 01:13:48;;;;;;;;;10.50;10.00;;;;;11.53;71.94;100492.66;2109843;27;46655;-66
2023/03/12 01:14:48;;;;;;;;;11.00;9.00;;;;;11.53;72.06;100503.31;2088318;28;46480;-65
2023/03/12 01:15:48;;;;;;;;;9.25;9.00;;;;;11.52;72.13;100503.34;2074781;28;46703;-65
2023/03/12 01:16:49;;;;;;;;;12.25;9.25;;;;;11.50;72.69;100500.75;2092068;28;46333;-65
2023/03/12 01:17:50;;;;;;;;;13.00;10.67;;;;;11.48;72.41;100506.09;2101089;27;46536;-64
2023/03/12 01:18:50;;;;;;;;;10.67;9.00;;;;;11.48;72.58;100506.09;2113256;27;46072;-67
2023/03/12 01:19:50;;;;;;;;;11.25;11.00;;;;;11.46;72.55;100499.09;2100959;27;46683;-65
2023/03/12 01:20:51;;;;;;;;;8.50;7.50;;;;;11.45;73.16;100506.19;2095477;28;46435;-66
2023/03/12 01:21:51;;;;;;;;;11.00;10.00;;;;;11.47;72.55;100508.81;2096285;28;46349;-65
2023/03/12 01:22:52;;;;;;;;;11.25;10.00;;;;;11.46;72.62;100499.09;2102874;27;46489;-64
2023/03/12 01:23:53;;;;;;;;;11.25;9.25;;;;;11.46;72.91;100507.06;2110281;27;45612;-65
2023/03/12 01:24:54;;;;;;;;;12.20;11.20;;;;;11.45;72.86;100503.53;2104936;27;47221;-65
2023/03/12 01:25:54;;;;;;;;;7.00;5.50;;;;;11.45;73.13;100500.88;2105141;27;46745;-65
2023/03/12 01:26:55;;;;;;;;;11.67;11.00;;;;;11.46;73.58;100504.41;2095328;28;46223;-65
2023/03/12 01:27:55;;;;;;;;;11.33;10.67;;;;;11.47;73.36;100514.13;2101080;28;46189;-64
2023/03/12 01:28:56;;;;;;;;;14.00;12.67;;;;;11.48;73.50;100507.88;2104785;27;46559;-65
2023/03/12 01:29:56;;;;;;;;;12.00;11.00;;;;;11.48;73.71;100510.53;2104718;27;46400;-63
2023/03/12 01:30:57;;;;;;;;;13.00;10.25;;;;;11.50;73.05;100508.72;2091661;28;45958;-66
2023/03/12 01:31:57;;;;;;;;;10.50;10.50;;;;;11.48;73.44;100511.41;2095839;28;46186;-64
2023/03/12 01:32:58;;;;;;;;;12.33;11.33;;;;;11.48;73.38;100498.13;2103973;27;45629;-63
2023/03/12 01:33:58;;;;;;;;;8.75;8.75;;;;;11.48;73.35;100503.44;2104932;27;46586;-65
2023/03/12 01:34:59;;;;;;;;;11.75;8.00;;;;;11.47;72.98;100507.03;2104847;27;46223;-64
2023/03/12 01:35:59;;;;;;;;;10.40;9.80;;;;;11.45;72.76;100500.88;2104723;27;46201;-64
2023/03/12 01:37:00;;;;;;;;;7.50;7.00;;;;;11.45;73.37;100500.00;2104632;28;45545;-65
2023/03/12 01:38:01;;;;;;;;;9.50;9.00;;;;;11.45;73.57;100500.88;2104336;27;45552;-64
2023/03/12 01:39:03;;;;;;;;;6.33;6.33;;;;;11.43;73.28;100501.81;2103888;27;46328;-64
2023/03/12 01:40:04;;;;;;;;;11.50;10.00;;;;;11.43;72.96;100499.16;2098129;27;46186;-65
2023/03/12 01:41:04;;;;;;;;;7.33;7.33;;;;;11.43;73.13;100501.81;2104032;27;46886;-65
2023/03/12 01:42:05;;;;;;;;;9.67;9.67;;;;;11.42;73.55;100502.72;2100887;27;46220;-65
2023/03/12 01:43:31;;;;;;;;;10.00;8.25;;;;;11.43;73.27;100497.41;2104665;27;45759;-65
2023/03/12 01:44:57;;;;;;;;;11.50;10.00;;;;;11.44;73.50;100500.94;2098922;27;46890;-64
2023/03/12 01:46:23;;;;;;;;;12.75;10.25;;;;;11.43;73.50;100502.72;2099515;27;45823;-64
2023/03/12 01:47:23;;;;;;;;;8.00;7.00;;;;;11.44;73.46;100500.94;2102047;27;46578;-65
2023/03/12 01:48:26;;;;;;;;;5.50;5.50;;;;;11.44;73.45;100503.59;2106061;27;46061;-64
2023/03/12 01:49:31;;;;;;;;;9.00;8.25;;;;;11.44;73.44;100501.81;2108787;27;46458;-64
2023/03/12 01:50:32;;;;;;;;;10.50;8.50;;;;;11.44;73.46;100499.16;2103707;27;46305;-65
2023/03/12 01:51:35;;;;;;;;;9.33;8.33;;;;;11.44;73.47;100501.81;2109388;27;46174;-64
2023/03/12 01:52:37;;;;;;;;;10.60;8.80;;;;;11.45;73.55;100500.88;2104986;27;45681;-66
2023/03/12 01:53:41;;;;;;;;;10.50;9.25;;;;;11.45;73.57;100498.22;2104681;27;45329;-62
2023/03/12 01:54:44;;;;;;;;;10.50;8.75;;;;;11.45;73.98;100492.91;2109458;27;46326;-65
2023/03/12 01:55:44;;;;;;;;;6.75;5.00;;;;;11.46;73.81;100486.69;2077467;28;46170;-65
2023/03/12 01:56:45;;;;;;;;;8.33;7.33;;;;;11.48;73.52;100489.28;2077791;28;46386;-64
2023/03/12 01:57:55;;;;;;;;;7.00;6.00;;;;;11.48;73.77;100483.97;2078036;28;46508;-65
2023/03/12 01:58:59;;;;;;;;;9.00;7.75;;;;;11.48;73.89;100484.84;2076327;28;46634;-63
2023/03/12 02:00:07;;;;;;;;;11.00;7.75;;;;;11.48;73.56;100484.84;2075762;28;46270;-63
2023/03/12 02:01:08;;;;;;;;;9.00;7.75;;;;;11.50;73.44;100484.78;2077553;28;46559;-64
2023/03/12 02:02:08;;;;;;;;;8.00;6.67;;;;;11.49;73.26;100483.94;2076932;28;46381;-64
2023/03/12 02:03:09;;;;;;;;;10.67;7.67;;;;;11.49;73.26;100488.38;2077322;28;46143;-63
2023/03/12 02:04:11;;;;;;;;;8.75;7.00;;;;;11.46;73.31;100486.69;2078136;28;46900;-64
2023/03/12 02:05:23;;;;;;;;;8.50;6.00;;;;;11.46;73.38;100489.34;2076867;28;46502;-64
2023/03/12 02:06:29;;;;;;;;;6.75;5.25;;;;;11.46;73.58;100491.13;2079579;28;46218;-64
2023/03/12 02:07:30;;;;;;;;;12.00;10.75;;;;;11.47;73.42;100487.56;2079554;28;46672;-64
2023/03/12 02:08:30;;;;;;;;;6.67;6.00;;;;;11.47;73.77;100490.22;2080184;28;46689;-64
2023/03/12 02:09:38;;;;;;;;;5.00;5.00;;;;;11.47;73.65;100487.56;2079613;28;45573;-65
2023/03/12 02:10:39;;;;;;;;;10.00;7.25;;;;;11.46;73.77;100483.16;2079885;28;46615;-64
2023/03/12 02:11:39;;;;;;;;;11.00;8.00;;;;;11.47;73.45;100479.56;2068810;28;46830;-64
2023/03/12 02:12:40;;;;;;;;;7.00;5.00;;;;;11.47;73.78;100477.78;2070316;28;45312;-64
2023/03/12 02:13:40;;;;;;;;;6.67;6.33;;;;;11.47;73.71;100479.56;2080275;28;46532;-64
2023/03/12 02:14:41;;;;;;;;;8.67;7.67;;;;;11.47;73.89;100480.44;2078952;28;46655;-64
2023/03/12 02:15:42;;;;;;;;;7.00;6.75;;;;;11.48;73.51;100487.50;2080071;28;45239;-65
2023/03/12 02:16:43;;;;;;;;;12.00;9.00;;;;;11.49;73.73;100485.72;2080404;28;45541;-63
2023/03/12 02:17:45;;;;;;;;;7.50;7.50;;;;;11.48;73.68;100482.19;2078764;28;46471;-64
2023/03/12 02:18:47;;;;;;;;;7.50;5.75;;;;;11.50;73.78;100482.13;2084440;28;45872;-64
2023/03/12 02:20:11;;;;;;;;;7.25;6.50;;;;;11.49;73.53;100478.63;2079649;28;45925;-65
2023/03/12 02:21:28;;;;;;;;;6.50;6.25;;;;;11.49;73.44;100477.75;2078802;28;45723;-64
2023/03/12 02:22:29;;;;;;;;;6.25;6.25;;;;;11.49;73.57;100477.75;2079676;28;46545;-66
2023/03/12 02:23:41;;;;;;;;;7.50;6.75;;;;;11.48;73.72;100479.53;2070430;28;47880;-64
2023/03/12 02:25:21;;;;;;;;;6.00;6.00;;;;;11.48;73.62;100484.84;2073153;28;46478;-65
2023/03/12 02:26:24;;;;;;;;;10.25;8.75;;;;;11.48;73.34;100478.66;2075884;28;45197;-63
2023/03/12 02:27:24;;;;;;;;;7.50;6.75;;;;;11.48;73.24;100481.31;2095018;28;47123;-64
2023/03/12 02:28:28;;;;;;;;;7.67;7.00;;;;;11.47;73.54;100476.91;2107150;27;46505;-64
2023/03/12 02:29:30;;;;;;;;;8.00;8.00;;;;;11.47;73.63;100480.44;2104481;27;46335;-64
2023/03/12 02:30:32;;;;;;;;;6.25;6.25;;;;;11.45;73.48;100481.41;2102316;27;46745;-65
2023/03/12 02:31:39;;;;;;;;;7.25;6.00;;;;;11.46;73.31;100489.34;2103222;27;46712;-65
2023/03/12 02:32:41;;;;;;;;;5.25;5.25;;;;;11.45;73.74;100495.56;2092116;28;46837;-64
2023/03/12 02:33:42;;;;;;;;;5.50;5.00;;;;;11.46;73.58;100493.78;2097142;28;46422;-65
2023/03/12 02:34:42;;;;;;;;;6.33;5.00;;;;;11.45;73.76;100495.56;2108020;27;45938;-67
2023/03/12 02:35:45;;;;;;;;;6.67;5.67;;;;;11.45;73.82;100489.38;2105257;27;46856;-64
2023/03/12 02:36:47;;;;;;;;;7.50;6.75;;;;;11.46;74.19;100493.78;2110259;27;46997;-64
2023/03/12 02:37:53;;;;;;;;;8.20;8.20;;;;;11.46;74.07;100499.09;2105796;27;46858;-64
2023/03/12 02:38:54;;;;;;;;;5.75;5.75;;;;;11.47;74.10;100490.22;2103890;27;45956;-66
2023/03/12 02:40:14;;;;;;;;;8.00;8.00;;;;;11.48;73.60;100497.25;2104141;27;45855;-65
2023/03/12 02:41:19;;;;;;;;;9.50;5.00;;;;;11.47;73.74;100500.84;2111148;27;45211;-64
2023/03/12 02:42:22;;;;;;;;;7.75;7.25;;;;;11.46;74.19;100499.97;2100032;27;47363;-65
2023/03/12 02:43:23;;;;;;;;;4.25;4.25;;;;;11.47;74.01;100503.50;2107242;27;45971;-65
2023/03/12 02:44:30;;;;;;;;;7.75;6.25;;;;;11.47;73.96;100504.38;2098801;28;45522;-66
2023/03/12 02:45:31;;;;;;;;;8.60;8.20;;;;;11.49;74.06;100506.97;2097152;27;46816;-64
2023/03/12 02:46:34;;;;;;;;;6.00;5.00;;;;;11.50;74.22;100514.03;2105290;27;46230;-63
2023/03/12 02:47:35;;;;;;;;;7.00;5.50;;;;;11.50;73.85;100508.72;2107722;27;46941;-64
2023/03/12 02:48:35;;;;;;;;;7.67;6.67;;;;;11.50;73.77;100511.38;2114196;27;45881;-63
2023/03/12 02:49:35;;;;;;;;;9.67;7.00;;;;;11.53;73.84;100513.06;2107695;27;45684;-65
2023/03/12 02:50:36;;;;;;;;;9.00;5.67;;;;;11.53;73.63;100510.41;2097759;28;46177;-64
2023/03/12 02:51:36;;;;;;;;;4.33;4.33;;;;;11.53;73.71;100505.09;2086984;28;46452;-64
2023/03/12 02:52:37;;;;;;;;;8.33;5.67;;;;;11.54;74.24;100515.66;2092634;28;47172;-64
2023/03/12 02:53:38;;;;;;;;;8.25;6.75;;;;;11.56;73.82;100515.63;2091905;27;46466;-66
2023/03/12 02:54:38;;;;;;;;;7.33;6.00;;;;;11.56;73.97;100499.69;2101832;28;45806;-65
2023/03/12 02:55:38;;;;;;;;;9.00;7.00;;;;;11.58;73.81;100500.53;2093226;28;45573;-65
2023/03/12 02:56:39;;;;;;;;;5.67;5.67;;;;;11.58;74.01;100505.84;2105434;28;46680;-65
2023/03/12 02:57:41;;;;;;;;;10.50;7.50;;;;;11.57;74.09;100504.09;2106227;27;46639;-63
2023/03/12 02:58:42;;;;;;;;;8.00;6.75;;;;;11.58;73.67;100517.34;2107120;27;45685;-64
2023/03/12 02:59:42;;;;;;;;;5.33;5.33;;;;;11.58;73.64;100513.81;2099460;28;46468;-63
2023/03/12 03:00:42;;;;;;;;;9.25;6.75;;;;;11.58;73.93;100511.16;2100207;28;46606;-64
2023/03/12 03:01:43;;;;;;;;;4.33;4.00;;;;;11.57;73.73;100502.31;2104704;28;46580;-64
2023/03/12 03:02:43;;;;;;;;;7.33;6.33;;;;;11.58;74.14;100501.41;2099153;28;45996;-64
2023/03/12 03:03:44;;;;;;;;;11.00;7.25;;;;;11.59;73.77;100497.81;2095686;28;46806;-64
2023/03/12 03:04:44;;;;;;;;;6.67;6.00;;;;;11.60;73.22;100499.56;2095857;28;46903;-65
2023/03/12 03:05:45;;;;;;;;;8.00;5.33;;;;;11.61;73.81;100508.41;2100096;28;46525;-65
2023/03/12 03:06:47;;;;;;;;;6.25;6.00;;;;;11.60;74.02;100510.19;2096708;28;46246;-65
2023/03/12 03:07:47;;;;;;;;;8.00;5.75;;;;;11.62;73.96;100512.81;2096307;28;46440;-63
2023/03/12 03:08:48;;;;;;;;;8.25;8.00;;;;;11.62;73.57;100510.16;2095406;28;45671;-64
2023/03/12 03:09:48;;;;;;;;;3.00;3.00;;;;;11.62;73.71;100512.81;2096259;28;46297;-64
2023/03/12 03:10:51;;;;;;;;;9.00;6.00;;;;;11.62;74.04;100520.78;2098859;28;46774;-64
2023/03/12 03:11:51;;;;;;;;;9.00;6.50;;;;;11.62;73.78;100523.44;2096127;28;46354;-65
2023/03/12 03:12:52;;;;;;;;;7.67;6.00;;;;;11.60;74.11;100510.19;2095814;28;45575;-64
2023/03/12 03:13:53;;;;;;;;;7.67;7.67;;;;;11.62;73.96;100510.16;2096049;28;46853;-63
2023/03/12 03:14:53;;;;;;;;;6.00;5.00;;;;;11.62;74.20;100508.34;2097209;28;45058;-65
2023/03/12 03:15:56;;;;;;;;;6.67;6.67;;;;;11.63;74.21;100503.91;2096518;28;45474;-64
2023/03/12 03:16:56;;;;;;;;;8.50;6.25;;;;;11.64;74.24;100497.69;2097409;28;45682;-64
2023/03/12 03:17:57;;;;;;;;;8.00;7.33;;;;;11.65;74.01;100502.06;2096127;28;46220;-66
2023/03/12 03:18:57;;;;;;;;;6.33;6.00;;;;;11.66;73.98;100503.81;2097713;28;46024;-65
2023/03/12 03:19:58;;;;;;;;;7.33;7.00;;;;;11.66;73.85;100510.00;2097558;28;46263;-63
2023/03/12 03:21:01;;;;;;;;;7.00;7.00;;;;;11.66;73.84;100506.47;2095528;28;47016;-65
2023/03/12 03:22:01;;;;;;;;;9.25;7.25;;;;;11.66;73.84;100507.34;2096067;28;46537;-64
2023/03/12 03:23:02;;;;;;;;;7.00;5.00;;;;;11.67;73.74;100505.56;2097441;27;46318;-65
2023/03/12 03:24:03;;;;;;;;;6.33;5.00;;;;;11.67;73.67;100510.88;2094876;28;46700;-64
2023/03/12 03:25:05;;;;;;;;;7.00;5.67;;;;;11.66;73.75;100510.00;2097612;28;45348;-64
2023/03/12 03:26:05;;;;;;;;;7.00;5.25;;;;;11.67;73.90;100510.88;2096275;28;46625;-64
2023/03/12 03:27:06;;;;;;;;;6.50;6.50;;;;;11.66;73.73;100509.13;2096504;28;46295;-64
2023/03/12 03:28:06;;;;;;;;;9.25;7.00;;;;;11.66;73.85;100510.00;2096174;28;46895;-64
2023/03/12 03:29:06;;;;;;;;;7.00;7.00;;;;;11.67;73.93;100508.22;2095746;28;46608;-63
2023/03/12 03:30:07;;;;;;;;;6.67;6.67;;;;;11.67;73.81;100518.84;2095894;28;46678;-64
2023/03/12 03:31:08;;;;;;;;;8.00;6.00;;;;;11.68;73.92;100516.13;2097501;28;45666;-64
2023/03/12 03:32:08;;;;;;;;;11.67;9.67;;;;;11.66;74.12;100517.97;2095766;28;46209;-64
2023/03/12 03:33:09;;;;;;;;;6.67;6.00;;;;;11.66;73.74;100528.59;2096230;28;46401;-65
2023/03/12 03:34:09;;;;;;;;;6.33;5.67;;;;;11.67;73.85;100529.47;2097544;28;46732;-64
2023/03/12 03:35:10;;;;;;;;;7.00;7.00;;;;;11.65;74.09;100529.53;2106875;27;46344;-64
2023/03/12 03:36:14;;;;;;;;;8.00;6.00;;;;;11.65;73.98;100529.53;2104227;27;46811;-64
2023/03/12 03:37:15;;;;;;;;;6.00;3.00;;;;;11.65;74.16;100534.84;2086775;28;46446;-64
2023/03/12 03:38:15;;;;;;;;;8.00;6.33;;;;;11.66;74.24;100531.25;2089006;28;46766;-64
2023/03/12 03:39:16;;;;;;;;;9.75;8.00;;;;;11.66;74.21;100533.06;2097364;28;46557;-64
2023/03/12 03:40:16;;;;;;;;;8.33;7.00;;;;;11.64;74.14;100530.44;2107217;27;45923;-65
2023/03/12 03:41:18;;;;;;;;;8.67;6.33;;;;;11.66;73.99;100541.03;2101987;27;46544;-64
2023/03/12 03:42:19;;;;;;;;;5.25;4.00;;;;;11.65;74.11;100532.19;2106364;27;46187;-64
2023/03/12 03:43:21;;;;;;;;;9.67;6.00;;;;;11.65;74.19;100541.94;2106610;27;46298;-64
2023/03/12 03:44:21;;;;;;;;;5.50;5.25;;;;;11.64;74.49;100541.06;2105336;27;46049;-65
2023/03/12 03:45:22;;;;;;;;;7.67;7.00;;;;;11.64;74.19;100541.06;2101297;27;46636;-64
2023/03/12 03:46:22;;;;;;;;;7.00;5.00;;;;;11.64;74.05;100537.53;2103779;27;46289;-64
2023/03/12 03:47:23;;;;;;;;;5.00;5.00;;;;;11.63;73.87;100539.34;2096028;28;46084;-65
2023/03/12 03:48:23;;;;;;;;;6.67;6.00;;;;;11.62;73.95;100534.94;2096287;28;46613;-63
2023/03/12 03:49:24;;;;;;;;;8.67;7.67;;;;;11.62;74.21;100540.25;2097598;28;45667;-64
2023/03/12 03:50:24;;;;;;;;;4.67;4.67;;;;;11.62;74.16;100539.38;2089498;28;46565;-63
2023/03/12 03:51:24;;;;;;;;;7.00;6.00;;;;;11.61;74.09;100538.50;2106214;27;45933;-64
2023/03/12 03:52:25;;;;;;;;;4.67;3.00;;;;;11.60;74.51;100542.09;2102935;27;46219;-64
2023/03/12 03:53:25;;;;;;;;;8.33;6.00;;;;;11.60;74.45;100536.78;2096247;28;46413;-63
2023/03/12 03:54:25;;;;;;;;;7.67;7.67;;;;;11.60;74.25;100538.56;2095284;28;46718;-63
2023/03/12 03:55:25;;;;;;;;;7.00;6.33;;;;;11.60;74.22;100543.88;2107152;27;46642;-63
2023/03/12 03:56:26;;;;;;;;;5.67;5.67;;;;;11.59;74.33;100544.78;2103092;27;46200;-66
2023/03/12 03:57:27;;;;;;;;;6.00;5.00;;;;;11.59;74.31;100547.44;2105396;27;46356;-63
2023/03/12 03:58:27;;;;;;;;;9.00;6.67;;;;;11.59;74.20;100552.78;2105843;27;46141;-63
2023/03/12 03:59:27;;;;;;;;;7.00;5.00;;;;;11.58;74.25;100553.69;2106652;27;45835;-65
2023/03/12 04:00:28;;;;;;;;;6.67;6.00;;;;;11.57;74.02;100554.59;2105261;27;45678;-65
2023/03/12 04:01:28;;;;;;;;;7.00;5.00;;;;;11.56;74.05;100547.50;2105209;27;46611;-63
2023/03/12 04:02:28;;;;;;;;;7.33;5.67;;;;;11.55;74.00;100551.97;2106170;27;46177;-65
2023/03/12 04:03:29;;;;;;;;;10.33;9.00;;;;;11.53;73.89;100548.47;2106953;27;46175;-64
2023/03/12 04:04:30;;;;;;;;;8.33;6.00;;;;;11.53;74.25;100555.59;2106576;27;46491;-64
2023/03/12 04:05:30;;;;;;;;;8.00;6.00;;;;;11.51;74.16;100552.97;2107335;27;46637;-66
2023/03/12 04:06:31;;;;;;;;;4.67;4.67;;;;;11.50;74.01;100554.75;2104207;27;45672;-65
2023/03/12 04:07:31;;;;;;;;;8.33;6.67;;;;;11.49;73.98;100554.81;2107867;27;46590;-64
2023/03/12 04:08:35;;;;;;;;;5.33;4.33;;;;;11.49;74.22;100562.78;2108394;27;45822;-63
2023/03/12 04:09:36;;;;;;;;;6.50;6.00;;;;;11.48;74.34;100564.56;2104951;27;46298;-64
2023/03/12 04:10:36;;;;;;;;;9.00;6.00;;;;;11.48;74.26;100569.00;2108278;27;46240;-64
2023/03/12 04:11:37;;;;;;;;;6.00;6.00;;;;;11.48;73.83;100567.22;2107901;27;45659;-64
2023/03/12 04:12:37;;;;;;;;;6.00;5.67;;;;;11.49;74.25;100574.28;2096432;28;46438;-64
2023/03/12 04:13:38;;;;;;;;;6.67;6.67;;;;;11.48;74.10;100574.31;2099600;28;46988;-64
2023/03/12 04:14:40;;;;;;;;;4.00;4.00;;;;;11.47;74.15;100583.22;2104543;27;46255;-64
2023/03/12 04:15:51;;;;;;;;;8.75;6.25;;;;;11.47;74.29;100585.88;2106708;27;46728;-65
2023/03/12 04:16:52;;;;;;;;;8.00;6.75;;;;;11.45;73.98;100588.56;2106260;27;46624;-64
2023/03/12 04:17:52;;;;;;;;;9.00;7.33;;;;;11.46;74.42;100587.66;2106507;27;45507;-63
2023/03/12 04:18:53;;;;;;;;;6.33;6.33;;;;;11.46;74.25;100587.66;2107031;27;46276;-64
2023/03/12 04:19:53;;;;;;;;;6.67;6.00;;;;;11.46;74.45;100585.00;2108421;27;46076;-64
2023/03/12 04:20:53;;;;;;;;;6.67;6.00;;;;;11.46;74.36;100592.97;2097060;28;46314;-64
2023/03/12 04:21:54;;;;;;;;;6.67;6.00;;;;;11.46;74.49;100576.16;2096166;28;46959;-64
2023/03/12 04:22:54;;;;;;;;;5.33;5.33;;;;;11.46;74.62;100582.34;2104332;27;46398;-65
2023/03/12 04:23:54;;;;;;;;;5.33;3.67;;;;;11.48;74.36;100579.63;2106497;27;45817;-66
2023/03/12 04:24:55;;;;;;;;;6.67;6.67;;;;;11.47;74.30;100586.75;2108834;27;46582;-65
2023/03/12 04:25:56;;;;;;;;;8.67;7.33;;;;;11.47;74.23;100592.06;2095077;28;46379;-66
2023/03/12 04:26:58;;;;;;;;;6.50;6.50;;;;;11.45;73.98;100591.22;2095221;28;46747;-64
2023/03/12 04:27:58;;;;;;;;;5.50;5.00;;;;;11.45;74.30;100587.69;2095040;28;46834;-65
2023/03/12 04:28:59;;;;;;;;;10.00;7.33;;;;;11.44;74.08;100592.16;2094396;28;46387;-65
2023/03/12 04:30:00;;;;;;;;;7.25;7.00;;;;;11.44;74.23;100599.25;2094849;28;46783;-64
2023/03/12 04:31:03;;;;;;;;;8.00;5.33;;;;;11.42;74.27;100596.59;2095255;28;46872;-64
2023/03/12 04:32:05;;;;;;;;;5.75;5.75;;;;;11.42;73.95;100601.03;2095689;28;45855;-66
2023/03/12 04:33:06;;;;;;;;;5.75;4.50;;;;;11.41;73.99;100599.31;2100519;28;46771;-65
2023/03/12 04:34:06;;;;;;;;;6.25;6.00;;;;;11.40;74.49;100597.56;2096751;28;46474;-65
2023/03/12 04:35:07;;;;;;;;;7.33;5.33;;;;;11.39;74.26;100602.00;2098186;28;46063;-64
2023/03/12 04:36:07;;;;;;;;;6.33;5.00;;;;;11.38;74.37;100605.59;2099790;28;45527;-63
2023/03/12 04:37:12;;;;;;;;;6.33;6.00;;;;;11.37;74.53;100600.31;2095972;28;45180;-64
2023/03/12 04:38:12;;;;;;;;;7.00;6.25;;;;;11.37;74.60;100608.28;2095608;28;46109;-64
2023/03/12 04:39:17;;;;;;;;;8.67;3.00;;;;;11.37;74.35;100609.16;2095231;28;46589;-65
2023/03/12 04:40:18;;;;;;;;;7.25;6.00;;;;;11.36;74.33;100622.47;2094566;28;46282;-64
2023/03/12 04:41:19;;;;;;;;;5.00;5.00;;;;;11.37;74.44;100618.91;2097031;28;46608;-64
2023/03/12 04:42:19;;;;;;;;;8.00;4.00;;;;;11.38;74.20;100615.34;2095761;28;46850;-64
2023/03/12 04:43:19;;;;;;;;;6.00;6.00;;;;;11.37;74.19;100624.22;2098068;28;46607;-64
2023/03/12 04:44:20;;;;;;;;;8.00;6.67;;;;;11.38;74.40;100632.16;2098938;28;46752;-65
2023/03/12 04:45:20;;;;;;;;;8.33;6.00;;;;;11.39;74.30;100633.88;2096006;28;46250;-64